This is the latest recevied weather packets stored in our database for station/object WABO. If no packets are shown the sender has not sent any weather packets the latest 10 day(s).
| Time | Temp. | Humidity | Pressure | Rain* | Wind** | Luminosity | Snow |
|---|---|---|---|---|---|---|---|
| 1787632063 | 31.11° C | 66% | 1012 hPa | 0 mm | - | - | - |
| 1787627224 | 32.22° C | 63% | 1013 hPa | 0 mm | - | - | - |
| 1787625177 | 32.22° C | 63% | 1014 hPa | 0 mm | - | - | - |
| 1787623193 | 32.22° C | 63% | 1014 hPa | 0 mm | - | - | - |
| 1787621214 | 31.11° C | 62% | 1014 hPa | 0 mm | - | - | - |
| 1787619179 | 27.78° C | 74% | 1014 hPa | 0 mm | - | - | - |
| 1787617207 | 27.78° C | 74% | 1014 hPa | 0 mm | - | - | - |
| 1787615237 | 25° C | 83% | 1013 hPa | 0 mm | - | - | - |
| 1787613263 | 25° C | 83% | 1013 hPa | 0 mm | - | - | - |
| 1787611293 | 22.78° C | 94% | 1013 hPa | 0 mm | - | - | - |
| 1787609320 | 22.78° C | 94% | 1013 hPa | 0 mm | - | - | - |
| 1787607356 | 22.78° C | 94% | 1012 hPa | 0 mm | - | - | - |
| 1787605265 | 22.78° C | 94% | 1012 hPa | 0 mm | - | - | - |
| 1787603288 | 23.89° C | 89% | 1012 hPa | 0 mm | - | - | - |
| 1787601334 | 23.89° C | 89% | 1012 hPa | 0 mm | - | - | - |
| 1787599380 | 23.89° C | 89% | 1012 hPa | 0 mm | - | - | - |
| 1787597419 | 23.89° C | 89% | 1012 hPa | 0 mm | - | - | - |
| 1787595454 | 23.89° C | 89% | 1012 hPa | 0 mm | - | - | - |
| 1787593458 | 23.89° C | 89% | 1012 hPa | 0 mm | - | - | - |
| 1787591494 | 23.89° C | 89% | 1012 hPa | 0 mm | - | - | - |
| 1787589524 | 23.89° C | 89% | 1012 hPa | 0 mm | - | - | - |
| 1787587544 | 23.89° C | 89% | 1012 hPa | 0 mm | - | - | - |
| 1787585542 | 25° C | 89% | 1012 hPa | 0 mm | - | - | - |
| 1787583516 | 25° C | 89% | 1012 hPa | 0 mm | - | - | - |
| 1787581495 | 25° C | 83% | 1013 hPa | 0 mm | - | - | - |
* Rain latest hour (hover to see other rain measurements)
** Current wind speed in m/s (hover to see current wind gust speed)